Time;durP1;ratioP1;P1;durP2;ratioP2;P2;SDS_P1;SDS_P2;PMS_P1;PMS_P2;Temp;Humidity;BMP_temperature;BMP_pressure;BME280_temperature;BME280_humidity;BME280_pressure;Samples;Min_cycle;Max_cycle;Signal;HPM_P1;HPM_P2
2022/01/10 00:00:15;;;;;;;7.03;2.30;;;25.70;93.50;;;;;;5073185;28;20114;-56
2022/01/10 00:02:45;;;;;;;8.82;2.00;;;25.80;93.50;;;;;;5071236;28;20069;-50
2022/01/10 00:05:13;;;;;;;4.57;1.58;;;25.70;93.30;;;;;;5073452;28;20029;-57
2022/01/10 00:07:40;;;;;;;7.22;2.15;;;25.70;93.20;;;;;;5073461;28;20062;-54
2022/01/10 00:10:08;;;;;;;8.07;2.38;;;25.70;93.80;;;;;;5073627;28;20028;-55
2022/01/10 00:12:38;;;;;;;6.18;1.95;;;25.70;93.60;;;;;;5072875;28;20357;-56
2022/01/10 00:15:06;;;;;;;7.63;2.22;;;25.70;93.50;;;;;;5055230;28;20028;-56
2022/01/10 00:17:38;;;;;;;10.18;2.90;;;25.80;93.50;;;;;;5072579;28;20021;-55
2022/01/10 00:20:11;;;;;;;5.43;1.90;;;25.80;93.60;;;;;;5072583;28;20025;-59
2022/01/10 00:22:45;;;;;;;6.50;2.20;;;25.80;93.50;;;;;;5071524;28;20020;-55
2022/01/10 00:25:15;;;;;;;4.57;1.88;;;25.80;93.60;;;;;;5072435;28;20040;-50
2022/01/10 00:27:47;;;;;;;5.95;2.05;;;25.80;93.40;;;;;;5072962;28;20027;-60
2022/01/10 00:30:14;;;;;;;8.05;2.38;;;25.70;93.60;;;;;;5073114;28;20034;-55
2022/01/10 00:32:44;;;;;;;6.20;2.05;;;25.80;93.60;;;;;;5072605;28;20063;-59
2022/01/10 00:35:12;;;;;;;7.18;2.22;;;25.70;93.40;;;;;;5073316;28;20028;-61
2022/01/10 00:37:43;;;;;;;4.65;1.95;;;25.60;93.50;;;;;;5072963;28;20054;-56
2022/01/10 00:40:12;;;;;;;6.35;2.58;;;25.70;93.50;;;;;;5073244;28;20444;-60
2022/01/10 00:42:41;;;;;;;10.80;2.22;;;25.60;93.70;;;;;;5072880;28;20115;-57
2022/01/10 00:45:23;;;;;;;5.25;1.95;;;25.70;93.80;;;;;;5073114;28;20036;-57
2022/01/10 00:47:51;;;;;;;4.25;2.00;;;25.60;93.50;;;;;;5073322;28;20094;-60
2022/01/10 00:50:18;;;;;;;6.72;2.90;;;25.60;93.80;;;;;;5072857;28;20027;-55
2022/01/10 00:52:46;;;;;;;6.07;1.85;;;25.60;93.90;;;;;;5073258;28;20056;-58
2022/01/10 00:55:14;;;;;;;8.27;2.65;;;25.60;94.10;;;;;;5072673;28;20072;-58
2022/01/10 00:57:42;;;;;;;5.30;1.70;;;25.60;93.90;;;;;;5071348;28;20029;-60
2022/01/10 01:00:14;;;;;;;5.97;2.05;;;25.60;94.00;;;;;;5072376;28;20343;-59
2022/01/10 01:02:42;;;;;;;8.35;2.75;;;25.60;93.90;;;;;;5072640;28;20047;-55
2022/01/10 01:05:12;;;;;;;7.82;2.63;;;25.60;94.20;;;;;;5073721;28;20045;-58
2022/01/10 01:07:40;;;;;;;7.22;2.35;;;25.60;94.30;;;;;;5074858;28;20036;-51
2022/01/10 01:13:01;;;;;;;5.95;2.05;;;25.70;94.20;;;;;;5075263;28;20387;-58
2022/01/10 01:15:33;;;;;;;6.05;2.08;;;25.70;94.00;;;;;;5074901;28;20029;-54
2022/01/10 01:26:04;;;;;;;4.68;1.77;;;25.90;93.60;;;;;;5075947;28;20163;-56
2022/01/10 01:28:32;;;;;;;6.05;2.47;;;25.90;93.40;;;;;;5075878;28;20056;-52
2022/01/10 01:31:00;;;;;;;9.00;2.55;;;26.00;93.40;;;;;;5075599;28;20025;-56
2022/01/10 01:33:27;;;;;;;8.13;2.20;;;26.10;93.60;;;;;;5075665;28;20031;-57
2022/01/10 01:35:55;;;;;;;8.95;2.45;;;26.00;93.40;;;;;;5073895;28;20050;-55
2022/01/10 01:38:22;;;;;;;6.13;2.40;;;26.10;93.40;;;;;;5075882;28;20592;-62
2022/01/10 01:40:56;;;;;;;7.00;1.90;;;26.10;93.30;;;;;;5074325;28;20074;-58
2022/01/10 01:43:24;;;;;;;10.38;2.75;;;26.10;93.10;;;;;;5075130;28;20028;-59
2022/01/10 01:45:52;;;;;;;5.70;1.80;;;26.20;93.50;;;;;;5075076;28;20027;-55
2022/01/10 01:48:19;;;;;;;5.53;1.90;;;26.20;93.10;;;;;;5075283;28;20118;-56
2022/01/10 01:50:47;;;;;;;3.95;2.05;;;26.20;93.20;;;;;;5075423;28;20028;-58
2022/01/10 01:53:14;;;;;;;7.10;2.17;;;26.20;92.90;;;;;;5075247;28;20361;-61
2022/01/10 01:55:45;;;;;;;6.85;1.70;;;26.20;93.00;;;;;;5073985;28;20469;-59
2022/01/10 01:58:13;;;;;;;4.07;1.77;;;26.30;93.00;;;;;;5075343;28;20459;-59
2022/01/10 02:00:40;;;;;;;5.13;1.95;;;26.30;92.70;;;;;;5074007;28;20037;-60
2022/01/10 02:03:08;;;;;;;5.05;1.63;;;26.30;92.60;;;;;;5074567;28;20031;-56
2022/01/10 02:05:36;;;;;;;6.53;2.10;;;26.30;92.60;;;;;;5075032;28;20024;-56
2022/01/10 02:08:03;;;;;;;5.82;1.75;;;26.30;92.90;;;;;;5075079;28;20029;-60
2022/01/10 02:10:31;;;;;;;8.07;2.55;;;26.40;93.50;;;;;;5075092;28;20027;-55
2022/01/10 02:12:58;;;;;;;4.35;1.50;;;26.40;93.40;;;;;;5074931;28;20119;-58
2022/01/10 02:15:58;;;;;;;6.53;2.65;;;26.30;93.00;;;;;;5074277;28;20112;-57
2022/01/10 02:18:26;;;;;;;6.95;2.17;;;26.30;92.90;;;;;;5074446;28;20036;-52
2022/01/10 02:20:54;;;;;;;5.82;2.03;;;26.30;93.20;;;;;;5074696;28;20067;-58
2022/01/10 02:23:22;;;;;;;5.72;2.50;;;26.20;93.30;;;;;;5074789;28;20035;-61
2022/01/10 02:25:50;;;;;;;7.00;2.00;;;26.20;93.50;;;;;;5074925;28;20112;-60
2022/01/10 02:28:17;;;;;;;6.22;1.77;;;26.20;93.50;;;;;;5074620;28;20046;-57
2022/01/10 02:30:45;;;;;;;3.13;1.80;;;26.10;93.30;;;;;;5074403;28;20016;-59
2022/01/10 02:33:12;;;;;;;5.72;1.75;;;26.10;93.30;;;;;;5073411;28;20021;-59
2022/01/10 02:35:50;;;;;;;6.80;2.30;;;26.10;93.50;;;;;;5074805;28;20069;-61
2022/01/10 02:38:18;;;;;;;7.47;2.28;;;26.10;93.40;;;;;;5073727;28;20039;-61
2022/01/10 02:40:48;;;;;;;6.60;2.38;;;26.10;93.90;;;;;;5073080;28;20021;-53
2022/01/10 02:43:15;;;;;;;4.95;1.60;;;26.10;93.40;;;;;;5074593;28;20027;-59
2022/01/10 02:45:42;;;;;;;8.18;2.30;;;26.10;93.30;;;;;;5074444;28;20020;-58
2022/01/10 02:48:10;;;;;;;8.25;2.72;;;26.20;93.50;;;;;;5074304;28;20103;-55
2022/01/10 02:50:37;;;;;;;8.68;2.60;;;26.20;93.50;;;;;;5075257;28;20024;-58
2022/01/10 02:53:05;;;;;;;8.50;2.50;;;26.30;93.60;;;;;;5074254;28;20024;-59
2022/01/10 02:55:32;;;;;;;8.90;2.65;;;26.40;93.10;;;;;;5074543;28;20071;-56
2022/01/10 02:58:00;;;;;;;7.50;2.65;;;26.40;93.20;;;;;;5074725;28;20028;-54
2022/01/10 03:00:31;;;;;;;8.68;2.20;;;26.40;93.10;;;;;;5074235;28;20044;-59
2022/01/10 03:02:59;;;;;;;8.13;2.10;;;26.50;93.10;;;;;;5074540;28;20100;-57
2022/01/10 03:05:26;;;;;;;7.07;2.13;;;26.50;93.00;;;;;;5072879;28;20024;-61
2022/01/10 03:07:56;;;;;;;3.92;1.80;;;26.60;93.00;;;;;;5073972;28;20025;-57
2022/01/10 03:10:23;;;;;;;9.20;2.10;;;26.60;92.90;;;;;;5075709;28;20035;-56
2022/01/10 03:12:51;;;;;;;8.38;1.75;;;26.60;92.90;;;;;;5075096;28;20082;-56
2022/01/10 03:15:18;;;;;;;9.63;2.75;;;26.70;92.80;;;;;;5074080;28;20069;-56
2022/01/10 03:17:45;;;;;;;5.28;2.13;;;26.70;93.00;;;;;;5074680;28;20320;-58
2022/01/10 03:20:13;;;;;;;9.23;2.25;;;26.80;92.80;;;;;;5073912;28;20052;-58
2022/01/10 03:22:41;;;;;;;8.02;2.33;;;26.80;92.50;;;;;;5074238;28;20025;-58
2022/01/10 03:25:09;;;;;;;8.27;2.20;;;26.80;92.30;;;;;;5074097;28;20025;-55
2022/01/10 03:27:36;;;;;;;6.85;2.20;;;26.90;92.30;;;;;;5072724;28;20490;-58
2022/01/10 03:30:05;;;;;;;3.72;1.35;;;26.90;92.20;;;;;;5074277;28;20027;-58
2022/01/10 03:32:33;;;;;;;11.02;2.20;;;26.90;92.10;;;;;;5074352;28;20025;-62
2022/01/10 03:35:00;;;;;;;5.55;1.83;;;27.00;92.30;;;;;;5074310;28;20032;-52
2022/01/10 03:37:28;;;;;;;3.88;1.70;;;27.00;92.00;;;;;;5074567;28;20502;-59
2022/01/10 03:39:55;;;;;;;8.98;2.40;;;27.00;92.10;;;;;;5073606;28;20481;-52
2022/01/10 03:42:23;;;;;;;8.07;1.80;;;27.00;92.00;;;;;;5073616;28;20111;-61
2022/01/10 03:44:50;;;;;;;5.97;1.80;;;27.10;92.10;;;;;;5073143;28;20025;-54
2022/01/10 03:47:20;;;;;;;5.25;1.95;;;27.10;91.90;;;;;;5072136;28;20457;-56
2022/01/10 03:49:48;;;;;;;3.80;1.63;;;27.10;92.10;;;;;;5073158;28;20031;-60
2022/01/10 03:52:16;;;;;;;5.07;1.98;;;27.10;91.90;;;;;;5073311;28;20024;-60
2022/01/10 03:54:44;;;;;;;4.20;1.65;;;27.10;92.10;;;;;;5072753;28;20052;-58
2022/01/10 03:57:11;;;;;;;5.97;1.80;;;27.10;92.10;;;;;;5073277;28;20601;-59
2022/01/10 03:59:42;;;;;;;6.97;2.45;;;27.00;92.10;;;;;;5072974;28;20123;-54
2022/01/10 04:02:10;;;;;;;8.15;1.73;;;27.10;92.20;;;;;;5072737;28;20029;-57
2022/01/10 04:04:43;;;;;;;6.18;2.45;;;27.10;92.20;;;;;;5073554;28;20043;-57
2022/01/10 04:07:12;;;;;;;5.80;1.52;;;27.10;92.10;;;;;;5072062;28;20395;-58
2022/01/10 04:09:43;;;;;;;6.57;1.80;;;27.10;92.00;;;;;;5073303;28;20029;-62
2022/01/10 04:12:11;;;;;;;3.92;1.50;;;27.00;92.10;;;;;;5072692;28;20037;-57
2022/01/10 04:14:38;;;;;;;3.72;1.70;;;27.00;92.20;;;;;;5072984;28;20035;-58
2022/01/10 04:17:05;;;;;;;5.03;1.73;;;27.00;92.30;;;;;;5072714;28;20096;-49
2022/01/10 04:19:33;;;;;;;6.05;1.98;;;27.00;92.30;;;;;;5071648;28;20032;-49
2022/01/10 04:22:01;;;;;;;6.40;2.25;;;27.00;92.40;;;;;;5071892;28;20077;-58
2022/01/10 04:24:29;;;;;;;6.47;1.98;;;27.00;92.20;;;;;;5071891;28;20028;-58
2022/01/10 04:26:56;;;;;;;5.43;1.90;;;27.00;92.10;;;;;;5069438;28;20024;-60
2022/01/10 04:29:24;;;;;;;6.15;2.03;;;27.10;92.10;;;;;;5072683;28;20032;-61
2022/01/10 04:31:51;;;;;;;3.63;1.63;;;27.10;92.30;;;;;;5072451;28;20352;-61
2022/01/10 04:34:19;;;;;;;5.43;1.90;;;27.10;92.40;;;;;;5072669;28;20033;-58
2022/01/10 04:36:46;;;;;;;8.45;1.67;;;27.10;92.30;;;;;;5072752;28;20052;-57
2022/01/10 04:39:14;;;;;;;4.53;1.73;;;27.10;92.10;;;;;;5072594;28;20025;-59
2022/01/10 04:41:41;;;;;;;4.43;1.70;;;27.10;92.10;;;;;;5075617;28;20024;-57
2022/01/10 04:44:09;;;;;;;4.22;1.38;;;27.20;92.30;;;;;;5076699;28;20092;-56
2022/01/10 04:46:36;;;;;;;4.03;1.73;;;27.10;92.00;;;;;;5076933;28;20021;-58
2022/01/10 04:49:05;;;;;;;8.27;2.30;;;27.10;92.20;;;;;;5076822;28;20024;-57
2022/01/10 04:51:32;;;;;;;5.07;1.63;;;27.20;92.10;;;;;;5076389;28;20450;-56
2022/01/10 04:54:00;;;;;;;4.35;1.77;;;27.10;92.10;;;;;;5075873;28;20045;-58
2022/01/10 04:56:27;;;;;;;7.60;2.47;;;27.10;92.10;;;;;;5076467;28;20044;-60
2022/01/10 04:58:55;;;;;;;5.93;2.03;;;27.20;92.30;;;;;;5074806;28;20067;-60
2022/01/10 05:01:23;;;;;;;5.28;1.70;;;27.20;92.20;;;;;;5076423;28;20029;-59
2022/01/10 05:03:50;;;;;;;5.45;1.77;;;27.20;92.00;;;;;;5076062;28;20025;-57
2022/01/10 05:06:18;;;;;;;3.65;1.63;;;27.30;92.10;;;;;;5076153;28;20029;-56
2022/01/10 05:08:45;;;;;;;5.55;2.00;;;27.30;92.10;;;;;;5075814;28;20075;-59
2022/01/10 05:11:13;;;;;;;6.45;1.92;;;27.20;92.00;;;;;;5074838;28;20066;-61
2022/01/10 05:13:41;;;;;;;5.68;1.55;;;27.30;92.10;;;;;;5075993;28;20029;-59
2022/01/10 05:16:08;;;;;;;5.80;1.92;;;27.30;92.00;;;;;;5075693;28;20036;-60
2022/01/10 05:18:38;;;;;;;6.25;2.20;;;27.30;92.00;;;;;;5075572;28;20088;-60
2022/01/10 05:21:06;;;;;;;7.93;2.00;;;27.30;92.00;;;;;;5074438;28;20024;-56
2022/01/10 05:23:33;;;;;;;6.35;1.92;;;27.30;92.00;;;;;;5076143;28;20104;-62
2022/01/10 05:26:01;;;;;;;5.32;1.92;;;27.40;91.90;;;;;;5075323;28;20028;-58
2022/01/10 05:28:28;;;;;;;5.53;1.90;;;27.30;91.90;;;;;;5075850;28;20075;-58
2022/01/10 05:31:00;;;;;;;6.47;2.40;;;27.30;91.90;;;;;;5074775;28;20074;-59
2022/01/10 05:33:27;;;;;;;;;;;27.30;92.00;;;;;;5075925;28;20016;-59
2022/01/10 05:35:54;;;;;;;7.88;2.53;;;27.30;91.90;;;;;;5075786;28;19915;-55
2022/01/10 05:38:22;;;;;;;8.02;2.30;;;27.30;91.90;;;;;;5075468;28;20044;-61
2022/01/10 05:40:49;;;;;;;4.25;1.40;;;27.30;92.00;;;;;;5075611;28;20024;-54
2022/01/10 05:43:17;;;;;;;7.32;2.15;;;27.30;92.10;;;;;;5075397;28;20479;-59
2022/01/10 05:45:45;;;;;;;5.95;1.98;;;27.20;92.30;;;;;;5075083;28;20035;-61
2022/01/10 05:48:21;;;;;;;8.05;2.35;;;27.30;92.20;;;;;;5075279;28;20058;-58
2022/01/10 05:50:49;;;;;;;7.07;2.05;;;27.30;92.00;;;;;;5074713;28;20025;-53
2022/01/10 05:53:17;;;;;;;5.60;1.90;;;27.30;92.00;;;;;;5074601;28;20033;-54
2022/01/10 05:55:45;;;;;;;4.80;1.55;;;27.30;91.90;;;;;;5075512;28;20054;-55
2022/01/10 05:58:13;;;;;;;8.70;2.45;;;27.30;91.90;;;;;;5074867;28;20200;-59
2022/01/10 06:00:41;;;;;;;8.13;2.22;;;27.30;92.00;;;;;;5074968;28;20050;-57
2022/01/10 06:03:08;;;;;;;3.28;1.60;;;27.20;92.00;;;;;;5073904;28;20024;-60
2022/01/10 06:05:36;;;;;;;3.33;1.30;;;27.20;92.10;;;;;;5075053;28;20024;-56
2022/01/10 06:08:06;;;;;;;4.40;1.60;;;27.20;92.20;;;;;;5074392;28;20446;-55
2022/01/10 06:10:33;;;;;;;6.30;2.10;;;27.20;92.20;;;;;;5074866;28;20063;-56
2022/01/10 06:13:01;;;;;;;4.40;1.60;;;27.10;92.30;;;;;;5075225;28;20474;-55
2022/01/10 06:15:32;;;;;;;7.38;2.00;;;27.10;92.50;;;;;;5074961;28;20419;-58
2022/01/10 06:18:02;;;;;;;3.80;1.60;;;27.10;92.60;;;;;;5075173;28;20021;-57
2022/01/10 06:20:29;;;;;;;6.28;1.90;;;27.00;92.50;;;;;;5075356;28;20319;-59
2022/01/10 06:22:57;;;;;;;5.40;1.80;;;27.10;92.50;;;;;;5076232;28;20039;-58
2022/01/10 06:25:26;;;;;;;7.50;2.30;;;27.00;92.70;;;;;;5075566;28;20020;-53
2022/01/10 06:27:54;;;;;;;5.93;2.00;;;27.00;92.60;;;;;;5074559;28;20040;-58
2022/01/10 06:30:21;;;;;;;6.05;2.00;;;27.00;92.60;;;;;;5074659;28;20024;-59
2022/01/10 06:33:04;;;;;;;6.65;2.10;;;26.90;92.70;;;;;;5074858;28;20105;-60
2022/01/10 06:35:32;;;;;;;5.07;1.65;;;26.90;92.60;;;;;;5073673;28;20083;-60
2022/01/10 06:37:59;;;;;;;5.25;2.28;;;26.90;92.70;;;;;;5074651;28;20036;-60
2022/01/10 06:40:27;;;;;;;7.00;2.00;;;26.90;92.70;;;;;;5074864;28;20051;-52
2022/01/10 06:43:07;;;;;;;5.30;1.75;;;26.90;92.60;;;;;;5074641;28;20115;-60
2022/01/10 06:45:37;;;;;;;6.40;2.15;;;26.90;92.80;;;;;;5075113;28;20017;-59
2022/01/10 06:48:05;;;;;;;9.27;2.67;;;26.90;92.70;;;;;;5075157;28;20038;-60
2022/01/10 06:50:35;;;;;;;5.38;1.75;;;26.90;92.70;;;;;;5073001;28;20052;-59
2022/01/10 06:53:03;;;;;;;9.43;2.45;;;26.90;92.90;;;;;;5074426;28;20035;-58
2022/01/10 06:55:31;;;;;;;4.38;1.65;;;26.80;92.80;;;;;;5073503;28;20033;-55
2022/01/10 06:57:58;;;;;;;4.68;1.48;;;26.80;92.90;;;;;;5074307;28;20035;-57
2022/01/10 07:00:26;;;;;;;5.03;1.58;;;26.80;93.10;;;;;;5074107;28;20032;-58
2022/01/10 07:02:53;;;;;;;7.88;1.95;;;26.70;93.00;;;;;;5073916;28;20471;-62
2022/01/10 07:05:20;;;;;;;3.38;1.35;;;26.70;92.90;;;;;;5074307;28;20021;-64
2022/01/10 07:07:48;;;;;;;4.80;2.00;;;26.60;93.10;;;;;;5074108;28;20059;-59
2022/01/10 07:10:15;;;;;;;7.57;2.38;;;26.60;93.20;;;;;;5074329;28;20407;-58
2022/01/10 07:12:42;;;;;;;5.65;1.88;;;26.60;93.10;;;;;;5072907;28;20024;-58
2022/01/10 07:15:10;;;;;;;7.30;1.80;;;26.60;93.20;;;;;;5073752;28;20077;-56
2022/01/10 07:17:37;;;;;;;9.00;2.33;;;26.60;93.30;;;;;;5073662;28;20124;-60
2022/01/10 07:20:06;;;;;;;6.22;1.92;;;26.60;93.30;;;;;;5074293;28;20375;-55
2022/01/10 07:22:34;;;;;;;5.53;1.77;;;26.60;93.40;;;;;;5074146;28;20025;-54
2022/01/10 07:25:01;;;;;;;5.72;1.83;;;26.60;93.20;;;;;;5073653;28;20059;-52
2022/01/10 07:27:29;;;;;;;5.50;1.60;;;26.60;93.20;;;;;;5073772;28;20085;-56
2022/01/10 07:29:56;;;;;;;9.18;2.28;;;26.50;93.50;;;;;;5074232;28;20047;-57
2022/01/10 07:32:25;;;;;;;5.70;1.95;;;26.50;93.40;;;;;;5073615;28;20016;-61
2022/01/10 07:34:53;;;;;;;3.42;1.50;;;26.50;93.50;;;;;;5073562;28;20052;-60
2022/01/10 07:37:20;;;;;;;7.57;1.70;;;26.50;93.60;;;;;;5072369;28;20041;-60
2022/01/10 07:39:48;;;;;;;5.15;1.90;;;26.40;93.50;;;;;;5073401;28;20024;-55
2022/01/10 07:42:15;;;;;;;6.05;2.45;;;26.40;93.50;;;;;;5073641;28;20031;-56
2022/01/10 07:44:43;;;;;;;5.47;1.70;;;26.40;93.40;;;;;;5072828;28;20426;-60
2022/01/10 07:47:10;;;;;;;6.53;1.95;;;26.40;93.60;;;;;;5072795;28;20460;-61
2022/01/10 07:49:38;;;;;;;7.38;2.08;;;26.40;93.60;;;;;;5073390;28;20115;-53
2022/01/10 07:52:06;;;;;;;8.00;1.95;;;26.30;93.70;;;;;;5073660;28;20420;-54
2022/01/10 07:54:34;;;;;;;10.05;2.20;;;26.30;93.70;;;;;;5073947;28;20090;-56
2022/01/10 07:57:01;;;;;;;5.55;1.92;;;26.30;93.70;;;;;;5073996;28;20437;-61
2022/01/10 07:59:28;;;;;;;8.15;3.08;;;26.30;93.80;;;;;;5074090;28;20020;-55
2022/01/10 08:01:56;;;;;;;6.50;2.13;;;26.20;93.90;;;;;;5073323;28;20056;-56
2022/01/10 08:04:23;;;;;;;6.18;1.60;;;26.20;94.00;;;;;;5074174;28;20024;-59
2022/01/10 08:06:51;;;;;;;6.35;1.75;;;26.20;94.10;;;;;;5073500;28;20385;-60
2022/01/10 08:09:18;;;;;;;8.30;2.15;;;26.10;94.10;;;;;;5074404;28;20052;-60
2022/01/10 08:11:46;;;;;;;7.88;2.35;;;26.10;94.10;;;;;;5073771;28;20050;-58
2022/01/10 08:14:14;;;;;;;6.25;2.35;;;26.10;94.20;;;;;;5071101;28;20021;-62
2022/01/10 08:16:42;;;;;;;8.82;2.40;;;26.10;94.20;;;;;;5073182;28;20098;-58
2022/01/10 08:19:09;;;;;;;6.45;1.63;;;26.10;94.20;;;;;;5073276;28;20505;-56
2022/01/10 08:21:37;;;;;;;6.35;2.10;;;26.10;94.20;;;;;;5073409;28;20060;-55
2022/01/10 08:24:04;;;;;;;9.68;2.60;;;26.10;94.20;;;;;;5073437;28;20369;-60
2022/01/10 08:26:32;;;;;;;7.50;1.95;;;26.10;94.20;;;;;;5074735;28;20134;-62
2022/01/10 08:28:59;;;;;;;5.38;1.50;;;26.00;94.20;;;;;;5073975;28;20028;-60
2022/01/10 08:31:27;;;;;;;5.85;2.17;;;26.00;94.20;;;;;;5073731;28;20028;-58
2022/01/10 08:33:55;;;;;;;6.88;2.67;;;26.00;94.30;;;;;;5073008;28;20020;-55
2022/01/10 08:36:26;;;;;;;5.93;2.42;;;26.00;94.30;;;;;;5072075;28;20037;-58
2022/01/10 08:38:53;;;;;;;7.78;2.30;;;26.00;94.30;;;;;;5073382;28;20025;-56
2022/01/10 08:41:21;;;;;;;6.15;2.25;;;25.90;94.30;;;;;;5073019;28;20024;-60
2022/01/10 08:43:48;;;;;;;6.72;2.38;;;25.90;94.40;;;;;;5072841;28;20039;-57
2022/01/10 08:46:16;;;;;;;6.63;2.13;;;25.90;94.40;;;;;;5072800;28;20021;-57
2022/01/10 08:48:44;;;;;;;4.75;1.70;;;25.90;94.40;;;;;;5073335;28;20028;-62
2022/01/10 08:51:11;;;;;;;6.75;2.38;;;25.90;94.50;;;;;;5072934;28;20483;-60
2022/01/10 08:53:39;;;;;;;6.53;2.15;;;25.90;94.50;;;;;;5071476;28;20041;-59
2022/01/10 08:56:09;;;;;;;7.78;2.03;;;25.80;94.50;;;;;;5072684;28;20052;-56
2022/01/10 08:58:37;;;;;;;6.43;1.75;;;25.80;94.50;;;;;;5071808;28;20135;-57
2022/01/10 09:01:07;;;;;;;5.07;1.88;;;25.80;94.70;;;;;;5072972;28;20115;-57
2022/01/10 09:03:36;;;;;;;5.65;1.75;;;25.80;94.60;;;;;;5071580;28;20025;-60
2022/01/10 09:06:03;;;;;;;6.35;1.77;;;25.80;94.60;;;;;;5072440;28;20032;-55
2022/01/10 09:08:35;;;;;;;5.28;1.75;;;25.80;94.70;;;;;;5072500;28;20059;-63
2022/01/10 09:11:03;;;;;;;3.75;1.73;;;25.80;94.70;;;;;;5072467;28;20029;-58
2022/01/10 09:13:30;;;;;;;5.03;2.03;;;25.80;94.70;;;;;;5072193;28;20032;-54
2022/01/10 09:15:57;;;;;;;6.50;2.20;;;25.70;94.70;;;;;;5072182;28;20211;-56
2022/01/10 09:18:25;;;;;;;8.18;1.85;;;25.70;94.70;;;;;;5072218;28;20368;-60
2022/01/10 09:20:52;;;;;;;6.65;1.95;;;25.70;94.80;;;;;;5072491;28;20025;-58
2022/01/10 09:23:20;;;;;;;5.05;1.90;;;25.70;94.90;;;;;;5072347;28;20169;-59
2022/01/10 09:25:49;;;;;;;8.60;2.35;;;25.70;94.80;;;;;;5074014;28;20024;-56
2022/01/10 09:28:18;;;;;;;7.10;1.92;;;25.70;94.90;;;;;;5074643;28;20471;-57
2022/01/10 09:30:46;;;;;;;7.10;2.05;;;25.70;94.80;;;;;;5076355;28;20386;-59
2022/01/10 09:33:14;;;;;;;6.60;1.92;;;25.60;94.80;;;;;;5075972;28;20051;-58
2022/01/10 09:35:43;;;;;;;7.57;2.28;;;25.70;94.90;;;;;;5075912;28;20024;-59
2022/01/10 09:38:11;;;;;;;7.20;2.55;;;25.60;94.90;;;;;;5075823;28;20065;-57
2022/01/10 09:40:41;;;;;;;5.32;1.98;;;25.60;94.90;;;;;;5075990;28;20029;-60
2022/01/10 09:43:09;;;;;;;4.97;1.67;;;25.60;94.90;;;;;;5075712;28;20025;-60
2022/01/10 09:45:38;;;;;;;3.95;1.80;;;25.60;95.00;;;;;;5075887;28;20095;-60
2022/01/10 09:48:06;;;;;;;7.43;2.58;;;25.60;95.00;;;;;;5075999;28;20028;-62
2022/01/10 09:50:34;;;;;;;6.18;2.30;;;25.60;95.00;;;;;;5076115;28;20347;-61
2022/01/10 09:53:03;;;;;;;7.75;2.25;;;25.60;95.10;;;;;;5075652;28;20116;-59
2022/01/10 09:55:33;;;;;;;7.60;1.75;;;25.50;95.00;;;;;;5074498;28;20037;-60
2022/01/10 09:58:00;;;;;;;8.48;2.85;;;25.50;95.00;;;;;;5075184;28;20042;-60
2022/01/10 10:00:28;;;;;;;8.45;2.28;;;25.50;95.10;;;;;;5075760;28;20402;-59
2022/01/10 10:02:55;;;;;;;4.20;1.70;;;25.50;95.20;;;;;;5075822;28;20033;-60
2022/01/10 10:05:23;;;;;;;5.88;2.03;;;25.50;95.10;;;;;;5075516;28;20364;-58
2022/01/10 10:07:52;;;;;;;5.20;2.25;;;25.50;95.20;;;;;;5075492;28;20523;-58
2022/01/10 10:10:21;;;;;;;7.07;2.22;;;25.50;95.20;;;;;;5075683;28;20024;-62
2022/01/10 10:12:50;;;;;;;6.13;2.47;;;25.50;95.20;;;;;;5075055;28;20471;-56
2022/01/10 10:15:26;;;;;;;4.28;1.75;;;25.50;95.20;;;;;;5073953;28;20036;-64
2022/01/10 10:17:53;;;;;;;7.72;1.67;;;25.40;95.20;;;;;;5074091;28;20040;-64
2022/01/10 10:20:23;;;;;;;5.65;2.03;;;25.50;95.20;;;;;;5075503;28;20100;-58
2022/01/10 10:22:53;;;;;;;4.45;1.73;;;25.40;95.20;;;;;;5075571;28;20041;-65
2022/01/10 10:25:21;;;;;;;4.10;1.50;;;25.40;95.20;;;;;;5075179;28;20055;-63
2022/01/10 10:27:50;;;;;;;6.80;2.17;;;25.40;95.20;;;;;;5075070;28;20052;-62
2022/01/10 10:30:23;;;;;;;7.75;2.22;;;25.40;95.30;;;;;;5074881;28;20062;-59
2022/01/10 10:32:50;;;;;;;4.45;1.83;;;25.40;95.30;;;;;;5074882;28;20017;-62
2022/01/10 10:35:19;;;;;;;5.70;1.83;;;25.40;95.30;;;;;;5074804;28;20260;-60
2022/01/10 10:37:48;;;;;;;8.85;2.35;;;25.40;95.30;;;;;;5073941;28;20494;-62
2022/01/10 10:40:16;;;;;;;6.50;2.13;;;25.30;95.30;;;;;;5074674;28;20031;-62
2022/01/10 10:42:45;;;;;;;4.68;1.83;;;25.40;95.40;;;;;;5074909;28;20028;-60
2022/01/10 10:45:14;;;;;;;5.85;1.80;;;25.30;95.30;;;;;;5074797;28;20182;-57
2022/01/10 10:47:44;;;;;;;6.53;1.85;;;25.30;95.30;;;;;;5074843;28;20017;-60
2022/01/10 10:50:13;;;;;;;6.00;2.13;;;25.30;95.30;;;;;;5074341;28;20534;-61
2022/01/10 10:52:44;;;;;;;7.28;2.05;;;25.30;95.40;;;;;;5073567;28;20498;-58
2022/01/10 10:55:16;;;;;;;5.80;1.95;;;25.30;95.40;;;;;;5075104;28;20056;-58
2022/01/10 10:57:45;;;;;;;7.07;2.20;;;25.30;95.40;;;;;;5074457;28;20064;-58
2022/01/10 11:00:15;;;;;;;6.88;2.30;;;25.30;95.40;;;;;;5074978;28;20139;-54
2022/01/10 11:02:43;;;;;;;6.07;2.28;;;25.30;95.40;;;;;;5074673;28;20452;-54
2022/01/10 11:05:12;;;;;;;6.85;2.20;;;25.30;95.40;;;;;;5074233;28;20036;-62
2022/01/10 11:07:40;;;;;;;5.22;1.95;;;25.30;95.50;;;;;;5074750;28;20031;-60
2022/01/10 11:10:08;;;;;;;8.60;2.13;;;25.30;95.40;;;;;;5072544;28;20037;-61
2022/01/10 11:12:40;;;;;;;7.00;2.47;;;25.30;95.50;;;;;;5074025;28;20044;-60
2022/01/10 11:15:11;;;;;;;5.53;1.88;;;25.30;95.50;;;;;;5073715;28;20086;-57
2022/01/10 11:17:42;;;;;;;6.22;1.60;;;25.20;95.40;;;;;;5073889;28;20032;-58
2022/01/10 11:20:18;;;;;;;7.20;2.05;;;25.20;95.50;;;;;;5073735;28;20036;-60
2022/01/10 11:22:50;;;;;;;5.22;1.80;;;25.20;95.50;;;;;;5073965;28;20036;-60
2022/01/10 11:25:22;;;;;;;4.38;1.50;;;25.20;95.50;;;;;;5073831;28;20070;-65
2022/01/10 11:27:52;;;;;;;5.85;1.95;;;25.20;95.50;;;;;;5073594;28;20025;-58
2022/01/10 11:30:36;;;;;;;5.47;2.22;;;25.20;95.50;;;;;;5073798;28;20028;-61
2022/01/10 11:33:12;;;;;;;7.90;2.35;;;25.20;95.50;;;;;;5073656;28;20582;-60
2022/01/10 11:35:44;;;;;;;6.35;2.50;;;25.20;95.80;;;;;;5072381;28;20104;-59
2022/01/10 11:38:34;;;;;;;6.22;1.83;;;25.20;95.50;;;;;;5073473;28;20032;-60
2022/01/10 11:41:06;;;;;;;5.55;1.80;;;25.20;95.50;;;;;;5073664;28;20103;-62
2022/01/10 11:43:42;;;;;;;;;;;25.20;95.60;;;;;;5073814;28;20024;-58
2022/01/10 11:46:24;;;;;;;7.05;1.92;;;25.20;95.60;;;;;;5073433;28;20393;-58
2022/01/10 11:48:59;;;;;;;4.55;2.08;;;25.20;95.60;;;;;;5073108;28;20024;-58
2022/01/10 11:51:38;;;;;;;4.47;1.98;;;25.10;95.50;;;;;;5073237;28;20029;-56
2022/01/10 11:54:26;;;;;;;5.63;1.67;;;25.10;95.60;;;;;;5073206;28;20045;-60
2022/01/10 11:57:00;;;;;;;5.97;1.88;;;25.10;95.60;;;;;;5073018;28;20028;-60
2022/01/10 11:59:33;;;;;;;6.05;1.85;;;25.10;95.60;;;;;;5073939;28;20028;-59
2022/01/10 12:02:04;;;;;;;6.93;2.47;;;25.10;95.60;;;;;;5073672;28;20021;-60
2022/01/10 12:04:34;;;;;;;3.93;1.67;;;25.10;95.60;;;;;;5073578;28;20471;-60
2022/01/10 12:07:04;;;;;;;6.72;1.98;;;25.10;95.60;;;;;;5073457;28;20764;-60
2022/01/10 12:09:32;;;;;;;7.53;2.33;;;25.10;95.60;;;;;;5072182;28;20031;-60
2022/01/10 12:12:02;;;;;;;7.10;2.17;;;25.10;95.60;;;;;;5073125;28;20490;-59
2022/01/10 12:14:30;;;;;;;7.70;2.47;;;25.10;95.70;;;;;;5073439;28;20051;-59
2022/01/10 12:17:00;;;;;;;5.60;2.00;;;25.10;95.70;;;;;;5073239;28;20145;-60
2022/01/10 12:19:28;;;;;;;8.23;2.13;;;25.10;95.70;;;;;;5073275;28;20108;-60
2022/01/10 12:21:56;;;;;;;7.07;2.05;;;25.10;95.70;;;;;;5074188;28;20035;-58
2022/01/10 12:24:23;;;;;;;5.35;1.90;;;25.10;95.70;;;;;;5074715;28;20028;-60
2022/01/10 12:26:52;;;;;;;8.20;2.05;;;25.10;95.70;;;;;;5073133;28;20029;-58
2022/01/10 12:29:21;;;;;;;10.18;2.50;;;25.10;95.70;;;;;;5073464;28;20028;-59
2022/01/10 12:31:49;;;;;;;7.53;2.35;;;25.00;95.70;;;;;;5073205;28;20049;-61
2022/01/10 12:34:16;;;;;;;6.30;1.83;;;25.10;95.70;;;;;;5072641;28;20029;-61
2022/01/10 12:36:46;;;;;;;7.50;2.50;;;25.00;95.70;;;;;;5072739;28;20035;-59
2022/01/10 12:39:27;;;;;;;5.72;2.00;;;25.00;95.70;;;;;;5073030;28;20108;-59
2022/01/10 12:41:58;;;;;;;6.65;2.13;;;25.00;95.70;;;;;;5072790;28;20034;-62
2022/01/10 12:44:29;;;;;;;7.25;2.17;;;25.00;95.70;;;;;;5072664;28;20078;-60
2022/01/10 12:46:56;;;;;;;8.48;2.20;;;25.00;95.70;;;;;;5072537;28;20097;-60
2022/01/10 12:49:24;;;;;;;6.70;2.35;;;25.00;95.70;;;;;;5072703;28;20028;-61
2022/01/10 12:51:54;;;;;;;5.20;2.33;;;25.00;95.80;;;;;;5072514;28;20024;-54
2022/01/10 12:54:27;;;;;;;5.63;1.75;;;25.00;95.80;;;;;;5072541;28;20078;-59
2022/01/10 12:56:55;;;;;;;9.10;2.10;;;25.00;95.70;;;;;;5072332;28;20437;-57
2022/01/10 12:59:25;;;;;;;7.32;2.28;;;25.00;95.80;;;;;;5072519;28;20091;-59
2022/01/10 13:01:54;;;;;;;6.90;2.47;;;24.90;95.80;;;;;;5074986;28;20020;-56
2022/01/10 13:04:24;;;;;;;8.45;2.25;;;24.90;95.70;;;;;;5076360;28;20391;-61
2022/01/10 13:06:53;;;;;;;7.05;2.38;;;25.00;95.80;;;;;;5076656;28;20097;-56